Terminal Aerodrome Forecast
Issued by NWS

Home | Current Version | Previous Version | Text Only | Print | Product List | Glossary On
Versions: 1 2 3 4 5 6 7 8 9 10 11 12 13 14 15 16 17 18
229
FTUS43 KLSX 160520
TAFSUS
TAF
KSUS 160520Z 1606/1706 22005KT P6SM SKC WS015/25040KT
     FM161500 22009KT P6SM SKC
     FM162300 19004KT P6SM SCT250=

USA.gov is the U.S. government's official web portal to all federal, state and local government web resources and services.